Time;durP1;ratioP1;P1;durP2;ratioP2;P2;SDS_P1;SDS_P2;PMS_P1;PMS_P2;Temp;Humidity;BMP_temperature;BMP_pressure;BME280_temperature;BME280_humidity;BME280_pressure;Samples;Min_cycle;Max_cycle;Signal;HPM_P1;HPM_P2
2021/09/01 00:01:03;;;;;;;9.15;5.30;;;;;;;;;;5032701;28;20026;-53
2021/09/01 00:03:29;;;;;;;12.57;5.05;;;;;;;;;;5032786;28;20044;-53
2021/09/01 00:05:55;;;;;;;8.95;4.60;;;;;;;;;;5033234;28;20029;-53
2021/09/01 00:08:21;;;;;;;7.05;4.20;;;;;;;;;;5033400;28;20068;-53
2021/09/01 00:10:47;;;;;;;7.97;4.45;;;;;;;;;;5033361;28;20071;-53
2021/09/01 00:13:13;;;;;;;13.80;4.65;;;;;;;;;;5032794;28;20028;-53
2021/09/01 00:15:39;;;;;;;6.90;4.70;;;;;;;;;;5031599;28;20448;-53
2021/09/01 00:18:05;;;;;;;9.32;5.40;;;;;;;;;;5033243;28;20014;-53
2021/09/01 00:20:31;;;;;;;9.48;4.35;;;;;;;;;;5033351;28;20033;-53
2021/09/01 00:22:57;;;;;;;8.13;4.28;;;;;;;;;;5033183;28;20028;-54
2021/09/01 00:25:23;;;;;;;9.65;4.63;;;;;;;;;;5032241;28;20025;-53
2021/09/01 00:27:49;;;;;;;7.90;4.68;;;;;;;;;;5032256;28;20352;-53
2021/09/01 00:30:15;;;;;;;8.40;4.43;;;;;;;;;;5032848;28;20041;-53
2021/09/01 00:32:42;;;;;;;8.27;4.82;;;;;;;;;;5032439;28;20395;-53
2021/09/01 00:35:08;;;;;;;10.45;4.53;;;;;;;;;;5032151;28;20033;-53
2021/09/01 00:37:34;;;;;;;16.02;4.75;;;;;;;;;;5033093;28;20075;-53
2021/09/01 00:40:00;;;;;;;8.85;4.47;;;;;;;;;;5033225;28;20029;-54
2021/09/01 00:42:26;;;;;;;10.15;5.30;;;;;;;;;;5032305;28;20398;-54
2021/09/01 00:44:52;;;;;;;11.18;5.30;;;;;;;;;;5031342;28;20041;-53
2021/09/01 00:47:18;;;;;;;11.27;5.25;;;;;;;;;;5032565;28;20344;-53
2021/09/01 00:49:45;;;;;;;11.07;4.72;;;;;;;;;;5032738;28;20061;-53
2021/09/01 00:52:12;;;;;;;9.10;4.68;;;;;;;;;;5022362;28;20053;-54
2021/09/01 00:54:38;;;;;;;9.15;5.18;;;;;;;;;;5031237;28;20120;-54
2021/09/01 00:57:05;;;;;;;8.75;4.75;;;;;;;;;;5032063;28;20173;-54
2021/09/01 00:59:33;;;;;;;8.50;4.47;;;;;;;;;;5032893;28;20025;-53
2021/09/01 01:02:00;;;;;;;11.90;4.88;;;;;;;;;;5032197;28;20025;-53
2021/09/01 01:04:26;;;;;;;14.15;5.22;;;;;;;;;;5032181;28;20490;-54
2021/09/01 01:06:53;;;;;;;8.63;4.50;;;;;;;;;;5032138;28;20366;-53
2021/09/01 01:09:19;;;;;;;8.25;4.43;;;;;;;;;;5032616;28;20029;-53
2021/09/01 01:12:06;;;;;;;6.93;4.53;;;;;;;;;;5032773;28;20028;-53
2021/09/01 01:14:36;;;;;;;8.77;4.88;;;;;;;;;;5012515;28;20140;-53
2021/09/01 01:17:03;;;;;;;10.45;5.35;;;;;;;;;;5031095;28;20029;-53
2021/09/01 01:19:29;;;;;;;8.38;4.65;;;;;;;;;;5032306;28;20079;-53
2021/09/01 01:21:56;;;;;;;7.55;4.55;;;;;;;;;;5032408;28;20449;-53
2021/09/01 01:24:22;;;;;;;7.00;3.90;;;;;;;;;;5031868;28;20371;-54
2021/09/01 01:26:48;;;;;;;7.45;3.63;;;;;;;;;;5033709;28;20033;-54
2021/09/01 01:29:14;;;;;;;7.10;3.88;;;;;;;;;;5036017;28;20180;-54
2021/09/01 01:31:40;;;;;;;9.73;4.35;;;;;;;;;;5035614;28;20030;-54
2021/09/01 01:34:15;;;;;;;7.60;3.92;;;;;;;;;;5035643;28;20021;-54
2021/09/01 01:36:41;;;;;;;6.88;4.35;;;;;;;;;;5036199;28;20030;-53
2021/09/01 01:39:07;;;;;;;7.72;4.03;;;;;;;;;;5036167;28;20021;-53
2021/09/01 01:41:33;;;;;;;6.15;4.28;;;;;;;;;;5038706;28;20061;-54
2021/09/01 01:43:59;;;;;;;12.57;4.55;;;;;;;;;;5038739;28;20406;-54
2021/09/01 01:46:25;;;;;;;6.88;4.00;;;;;;;;;;5035684;28;20032;-54
2021/09/01 01:48:51;;;;;;;12.18;4.53;;;;;;;;;;5035691;28;20045;-53
2021/09/01 01:51:17;;;;;;;7.30;4.40;;;;;;;;;;5036280;28;20018;-54
2021/09/01 01:53:43;;;;;;;6.65;3.97;;;;;;;;;;5035546;28;20394;-53
2021/09/01 01:56:09;;;;;;;10.75;4.65;;;;;;;;;;5035765;28;20037;-53
2021/09/01 01:58:35;;;;;;;7.80;4.25;;;;;;;;;;5035299;28;20033;-54
2021/09/01 02:01:01;;;;;;;9.48;4.22;;;;;;;;;;5035115;28;20021;-53
2021/09/01 02:03:27;;;;;;;5.75;3.55;;;;;;;;;;5035156;28;20029;-54
2021/09/01 02:05:53;;;;;;;8.15;4.30;;;;;;;;;;5036146;28;20441;-53
2021/09/01 02:08:19;;;;;;;8.25;4.10;;;;;;;;;;5035707;28;20459;-53
2021/09/01 02:10:45;;;;;;;13.32;4.10;;;;;;;;;;5035804;28;20078;-53
2021/09/01 02:13:11;;;;;;;7.07;4.43;;;;;;;;;;5029173;28;20032;-54
2021/09/01 02:15:37;;;;;;;6.82;3.60;;;;;;;;;;5048705;28;20022;-53
2021/09/01 02:18:03;;;;;;;9.07;4.45;;;;;;;;;;5035359;28;20029;-53
2021/09/01 02:20:29;;;;;;;8.50;4.35;;;;;;;;;;5035471;28;20036;-53
2021/09/01 02:22:55;;;;;;;8.20;4.80;;;;;;;;;;5035233;28;20087;-53
2021/09/01 02:25:22;;;;;;;9.07;3.97;;;;;;;;;;5034799;28;20034;-53
2021/09/01 02:27:48;;;;;;;8.15;4.50;;;;;;;;;;5034432;28;20040;-53
2021/09/01 02:30:14;;;;;;;9.30;4.25;;;;;;;;;;5035184;28;20108;-53
2021/09/01 02:32:40;;;;;;;11.13;4.25;;;;;;;;;;5034762;28;20025;-53
2021/09/01 02:35:07;;;;;;;24.15;4.82;;;;;;;;;;5034462;28;20036;-53
2021/09/01 02:37:33;;;;;;;16.73;4.85;;;;;;;;;;5034494;28;20451;-53
2021/09/01 02:39:59;;;;;;;8.73;4.38;;;;;;;;;;5034767;28;20044;-53
2021/09/01 02:42:25;;;;;;;8.70;4.75;;;;;;;;;;5034579;28;20522;-53
2021/09/01 02:44:51;;;;;;;9.63;4.43;;;;;;;;;;5033612;28;20037;-53
2021/09/01 02:47:17;;;;;;;8.68;4.93;;;;;;;;;;5034871;28;20071;-53
2021/09/01 02:49:43;;;;;;;7.15;4.72;;;;;;;;;;5034264;28;20032;-53
2021/09/01 02:52:09;;;;;;;8.93;4.38;;;;;;;;;;5035105;28;20410;-53
2021/09/01 02:54:35;;;;;;;11.40;5.70;;;;;;;;;;5034256;28;20029;-53
2021/09/01 02:57:01;;;;;;;9.55;4.63;;;;;;;;;;5034838;28;20018;-53
2021/09/01 02:59:27;;;;;;;11.23;5.72;;;;;;;;;;5033956;28;20025;-53
2021/09/01 03:01:53;;;;;;;11.77;5.60;;;;;;;;;;5034618;28;20022;-53
2021/09/01 03:04:19;;;;;;;9.82;4.93;;;;;;;;;;5034131;28;20514;-53
2021/09/01 03:06:45;;;;;;;8.57;4.88;;;;;;;;;;5035025;28;20029;-53
2021/09/01 03:09:11;;;;;;;18.58;5.15;;;;;;;;;;5034522;28;20037;-53
2021/09/01 03:11:37;;;;;;;12.88;5.28;;;;;;;;;;5034407;28;20374;-53
2021/09/01 03:14:03;;;;;;;10.27;4.90;;;;;;;;;;5033096;28;20029;-53
2021/09/01 03:16:29;;;;;;;9.90;4.47;;;;;;;;;;5034174;28;20443;-53
2021/09/01 03:18:55;;;;;;;11.00;5.03;;;;;;;;;;5034057;28;20029;-53
2021/09/01 03:21:21;;;;;;;11.07;4.57;;;;;;;;;;5034459;28;20438;-53
2021/09/01 03:23:47;;;;;;;22.50;6.47;;;;;;;;;;5033582;28;20095;-53
2021/09/01 03:26:13;;;;;;;10.60;5.25;;;;;;;;;;5034257;28;20391;-53
2021/09/01 03:28:39;;;;;;;8.40;4.72;;;;;;;;;;5033353;28;20505;-53
2021/09/01 03:31:05;;;;;;;8.63;4.57;;;;;;;;;;5033426;28;20040;-53
2021/09/01 03:33:31;;;;;;;7.93;4.80;;;;;;;;;;5033653;28;20109;-53
2021/09/01 03:35:57;;;;;;;10.35;5.05;;;;;;;;;;5033936;28;20029;-53
2021/09/01 03:38:23;;;;;;;8.95;4.47;;;;;;;;;;5034436;28;20033;-53
2021/09/01 03:40:49;;;;;;;8.60;4.80;;;;;;;;;;5033410;28;20033;-53
2021/09/01 03:43:16;;;;;;;6.13;3.70;;;;;;;;;;5033126;28;20439;-53
2021/09/01 03:45:42;;;;;;;12.25;5.00;;;;;;;;;;5033036;28;20029;-53
2021/09/01 03:48:08;;;;;;;8.02;4.40;;;;;;;;;;5033959;28;20025;-53
2021/09/01 03:50:34;;;;;;;9.00;4.63;;;;;;;;;;5032945;28;20029;-53
2021/09/01 03:53:00;;;;;;;11.60;4.70;;;;;;;;;;5034040;28;20026;-53
2021/09/01 03:55:27;;;;;;;10.40;4.57;;;;;;;;;;5032669;28;20094;-53
2021/09/01 03:57:53;;;;;;;9.15;5.25;;;;;;;;;;5034027;28;20109;-53
2021/09/01 04:00:19;;;;;;;9.88;5.03;;;;;;;;;;5030913;28;20053;-53
2021/09/01 04:02:45;;;;;;;9.40;5.10;;;;;;;;;;5033025;28;20063;-53
2021/09/01 04:05:11;;;;;;;13.27;5.15;;;;;;;;;;5032460;28;20038;-53
2021/09/01 04:07:37;;;;;;;9.32;5.05;;;;;;;;;;5033523;28;20076;-53
2021/09/01 04:10:03;;;;;;;9.55;4.68;;;;;;;;;;5033535;28;20410;-53
2021/09/01 04:12:29;;;;;;;10.48;5.38;;;;;;;;;;5033095;28;20376;-54
2021/09/01 04:14:55;;;;;;;10.45;5.18;;;;;;;;;;5032132;28;20415;-53
2021/09/01 04:17:21;;;;;;;9.60;5.45;;;;;;;;;;5032945;28;20112;-53
2021/09/01 04:19:47;;;;;;;13.02;5.22;;;;;;;;;;5033343;28;20026;-53
2021/09/01 04:22:13;;;;;;;11.07;5.10;;;;;;;;;;5033338;28;20517;-53
2021/09/01 04:24:39;;;;;;;13.70;5.70;;;;;;;;;;5031985;28;20135;-53
2021/09/01 04:27:05;;;;;;;10.55;6.00;;;;;;;;;;5033256;28;20025;-53
2021/09/01 04:29:31;;;;;;;18.00;6.13;;;;;;;;;;5032752;28;20026;-53
2021/09/01 04:31:57;;;;;;;10.43;5.82;;;;;;;;;;5032690;28;20109;-53
2021/09/01 04:34:23;;;;;;;13.27;6.40;;;;;;;;;;5032086;28;20108;-53
2021/09/01 04:36:49;;;;;;;11.48;5.60;;;;;;;;;;5033015;28;20044;-53
2021/09/01 04:39:15;;;;;;;8.90;5.22;;;;;;;;;;5033034;28;20584;-53
2021/09/01 04:41:41;;;;;;;10.25;5.85;;;;;;;;;;5032882;28;20080;-54
2021/09/01 04:44:07;;;;;;;14.88;5.93;;;;;;;;;;5031595;28;20046;-53
2021/09/01 04:46:33;;;;;;;12.18;5.72;;;;;;;;;;5032673;28;20401;-53
2021/09/01 04:48:59;;;;;;;11.32;5.97;;;;;;;;;;5032732;28;20036;-53
2021/09/01 04:51:25;;;;;;;10.15;4.95;;;;;;;;;;5032800;28;20013;-53
2021/09/01 04:53:51;;;;;;;9.70;5.18;;;;;;;;;;5032057;28;20033;-53
2021/09/01 04:56:17;;;;;;;16.13;4.78;;;;;;;;;;5032805;28;20021;-53
2021/09/01 04:58:43;;;;;;;9.27;4.85;;;;;;;;;;5033056;28;20030;-53
2021/09/01 05:01:09;;;;;;;12.65;5.65;;;;;;;;;;5031045;28;20347;-53
2021/09/01 05:03:35;;;;;;;11.95;5.85;;;;;;;;;;5031742;28;20131;-53
2021/09/01 05:06:01;;;;;;;10.77;5.68;;;;;;;;;;5032916;28;20028;-53
2021/09/01 05:08:27;;;;;;;9.73;5.57;;;;;;;;;;5032522;28;20033;-53
2021/09/01 05:10:53;;;;;;;11.73;5.60;;;;;;;;;;5032801;28;20108;-53
2021/09/01 05:13:19;;;;;;;11.07;5.22;;;;;;;;;;5032046;28;20022;-53
2021/09/01 05:15:45;;;;;;;8.73;5.10;;;;;;;;;;5031407;28;20052;-53
2021/09/01 05:18:11;;;;;;;10.43;4.93;;;;;;;;;;5031796;28;20467;-53
2021/09/01 05:20:39;;;;;;;12.20;5.35;;;;;;;;;;5032062;28;20076;-53
2021/09/01 05:23:06;;;;;;;10.38;5.07;;;;;;;;;;5032274;28;20116;-54
2021/09/01 05:25:36;;;;;;;12.88;4.97;;;;;;;;;;5031830;28;20041;-53
2021/09/01 05:28:03;;;;;;;14.00;5.82;;;;;;;;;;5032427;28;20125;-51
2021/09/01 05:30:30;;;;;;;11.30;5.63;;;;;;;;;;5031777;28;20037;-52
2021/09/01 05:32:57;;;;;;;8.93;5.20;;;;;;;;;;5031694;28;20029;-52
2021/09/01 05:35:23;;;;;;;11.48;5.35;;;;;;;;;;5031866;28;20026;-51
2021/09/01 05:37:49;;;;;;;10.23;5.65;;;;;;;;;;5031542;28;20462;-51
2021/09/01 05:40:15;;;;;;;13.18;6.30;;;;;;;;;;5032442;28;20473;-52
2021/09/01 05:42:41;;;;;;;14.13;6.30;;;;;;;;;;5032996;28;20167;-51
2021/09/01 05:45:08;;;;;;;12.45;6.38;;;;;;;;;;5031078;28;20048;-51
2021/09/01 05:47:34;;;;;;;15.43;5.85;;;;;;;;;;5031918;28;20029;-52
2021/09/01 05:50:01;;;;;;;12.50;5.47;;;;;;;;;;5031865;28;20470;-52
2021/09/01 05:52:27;;;;;;;9.32;4.95;;;;;;;;;;5032219;28;20351;-52
2021/09/01 05:54:55;;;;;;;12.02;5.80;;;;;;;;;;5031830;28;20036;-52
2021/09/01 05:57:34;;;;;;;10.25;5.43;;;;;;;;;;5032254;28;20026;-52
2021/09/01 06:00:03;;;;;;;9.43;5.72;;;;;;;;;;5031517;28;20041;-52
2021/09/01 06:02:32;;;;;;;10.68;6.03;;;;;;;;;;5031429;28;20029;-52
2021/09/01 06:05:02;;;;;;;12.05;5.03;;;;;;;;;;5031501;28;20038;-52
2021/09/01 06:07:28;;;;;;;8.82;4.22;;;;;;;;;;5031831;28;20033;-52
2021/09/01 06:09:57;;;;;;;14.52;6.28;;;;;;;;;;5032412;28;20116;-53
2021/09/01 06:12:24;;;;;;;10.73;5.28;;;;;;;;;;5032560;28;20467;-52
2021/09/01 06:14:50;;;;;;;10.90;6.18;;;;;;;;;;5034468;28;20033;-52
2021/09/01 06:17:16;;;;;;;12.38;6.50;;;;;;;;;;5034674;28;20025;-52
2021/09/01 06:19:42;;;;;;;11.13;5.85;;;;;;;;;;5036081;28;20030;-53
2021/09/01 06:22:08;;;;;;;10.88;6.20;;;;;;;;;;5035201;28;20032;-53
2021/09/01 06:24:34;;;;;;;16.10;7.70;;;;;;;;;;5034471;28;20120;-53
2021/09/01 06:27:01;;;;;;;13.02;7.32;;;;;;;;;;5035209;28;20025;-53
2021/09/01 06:29:27;;;;;;;13.45;7.13;;;;;;;;;;5035973;28;20025;-52
2021/09/01 06:31:53;;;;;;;14.30;8.15;;;;;;;;;;5033271;28;20116;-52
2021/09/01 06:34:19;;;;;;;15.48;8.77;;;;;;;;;;5034220;28;20036;-52
2021/09/01 06:36:46;;;;;;;22.83;9.75;;;;;;;;;;5035356;28;20025;-52
2021/09/01 06:39:12;;;;;;;18.98;10.13;;;;;;;;;;5034898;28;20391;-52
2021/09/01 06:41:38;;;;;;;22.60;11.27;;;;;;;;;;5035186;28;20443;-52
2021/09/01 06:44:04;;;;;;;19.30;9.40;;;;;;;;;;5034427;28;20451;-53
2021/09/01 06:46:30;;;;;;;17.63;8.68;;;;;;;;;;5033150;28;20081;-52
2021/09/01 06:48:56;;;;;;;18.75;8.43;;;;;;;;;;5035041;28;20025;-52
2021/09/01 06:51:22;;;;;;;17.55;7.63;;;;;;;;;;5027924;28;20547;-52
2021/09/01 06:53:48;;;;;;;13.82;7.35;;;;;;;;;;5023539;28;20029;-53
2021/09/01 06:56:14;;;;;;;12.70;7.13;;;;;;;;;;5035084;28;20076;-52
2021/09/01 06:58:40;;;;;;;16.30;8.15;;;;;;;;;;5034994;28;20451;-52
2021/09/01 07:01:06;;;;;;;15.80;7.85;;;;;;;;;;5029151;28;20032;-52
2021/09/01 07:03:32;;;;;;;14.45;7.68;;;;;;;;;;5033447;28;20048;-53
2021/09/01 07:05:58;;;;;;;16.27;8.70;;;;;;;;;;5034923;28;20029;-53
2021/09/01 07:08:24;;;;;;;21.85;9.65;;;;;;;;;;5034518;28;20037;-53
2021/09/01 07:10:51;;;;;;;23.77;11.15;;;;;;;;;;5034395;28;20564;-53
2021/09/01 07:13:18;;;;;;;33.47;13.00;;;;;;;;;;5034033;28;20021;-53
2021/09/01 07:15:44;;;;;;;28.48;10.95;;;;;;;;;;5033151;28;20037;-52
2021/09/01 07:18:10;;;;;;;22.73;10.02;;;;;;;;;;5033860;28;20401;-52
2021/09/01 07:20:37;;;;;;;23.20;9.88;;;;;;;;;;5034672;28;20022;-52
2021/09/01 07:23:03;;;;;;;15.43;8.50;;;;;;;;;;5034116;28;20021;-53
2021/09/01 07:25:29;;;;;;;33.67;12.30;;;;;;;;;;5032762;28;20379;-52
2021/09/01 07:27:55;;;;;;;43.13;14.07;;;;;;;;;;5034139;28;20477;-53
2021/09/01 07:30:21;;;;;;;46.83;14.75;;;;;;;;;;5033241;28;20336;-52
2021/09/01 07:32:47;;;;;;;57.83;17.67;;;;;;;;;;5033377;28;20493;-53
2021/09/01 07:35:13;;;;;;;59.85;16.38;;;;;;;;;;5033798;28;20025;-53
2021/09/01 07:37:43;;;;;;;63.97;17.55;;;;;;;;;;5034293;28;20029;-53
2021/09/01 07:40:09;;;;;;;44.72;12.52;;;;;;;;;;5033831;28;20120;-52
2021/09/01 07:42:35;;;;;;;67.70;17.73;;;;;;;;;;5034160;28;20040;-53
2021/09/01 07:45:02;;;;;;;48.50;16.55;;;;;;;;;;5033292;28;20037;-53
2021/09/01 07:47:28;;;;;;;56.78;16.30;;;;;;;;;;5032946;28;20079;-54
2021/09/01 07:49:54;;;;;;;63.53;16.95;;;;;;;;;;5033475;28;20030;-53
2021/09/01 07:52:20;;;;;;;74.07;18.35;;;;;;;;;;5033961;28;20394;-53
2021/09/01 07:54:46;;;;;;;49.72;14.90;;;;;;;;;;5033009;28;20456;-53
2021/09/01 07:57:12;;;;;;;53.08;14.82;;;;;;;;;;5033732;28;20017;-52
2021/09/01 07:59:38;;;;;;;81.25;21.17;;;;;;;;;;5033490;28;20427;-52
2021/09/01 08:02:04;;;;;;;47.65;16.52;;;;;;;;;;5032331;28;20041;-52
2021/09/01 08:04:30;;;;;;;17.67;8.27;;;;;;;;;;5032808;28;20044;-52
2021/09/01 08:06:56;;;;;;;32.30;10.13;;;;;;;;;;5033632;28;20021;-52
2021/09/01 08:09:22;;;;;;;34.42;12.40;;;;;;;;;;5033579;28;20029;-53
2021/09/01 08:11:48;;;;;;;52.13;14.95;;;;;;;;;;5033102;28;20024;-52
2021/09/01 08:14:14;;;;;;;54.63;16.75;;;;;;;;;;5032263;28;20112;-52
2021/09/01 08:16:40;;;;;;;47.78;13.52;;;;;;;;;;5032639;28;20029;-53
2021/09/01 08:19:05;;;;;;;69.50;18.58;;;;;;;;;;5032868;28;20029;-52
2021/09/01 08:21:31;;;;;;;54.20;13.48;;;;;;;;;;5033303;28;20022;-52
2021/09/01 08:23:57;;;;;;;40.78;10.63;;;;;;;;;;5032495;28;20033;-53
2021/09/01 08:26:23;;;;;;;41.35;13.00;;;;;;;;;;5032871;28;20160;-53
2021/09/01 08:28:51;;;;;;;37.42;12.25;;;;;;;;;;5032791;28;20037;-52
2021/09/01 08:31:17;;;;;;;48.83;13.55;;;;;;;;;;5032196;28;20459;-52
2021/09/01 08:33:43;;;;;;;34.20;10.68;;;;;;;;;;5032071;28;20042;-53
2021/09/01 08:36:09;;;;;;;38.80;12.65;;;;;;;;;;5032363;28;20063;-52
2021/09/01 08:38:35;;;;;;;40.80;12.43;;;;;;;;;;5032946;28;20061;-52
2021/09/01 08:41:01;;;;;;;36.63;11.05;;;;;;;;;;5033371;28;20025;-52
2021/09/01 08:43:28;;;;;;;51.65;13.80;;;;;;;;;;5031892;28;20033;-52
2021/09/01 08:45:54;;;;;;;69.75;17.58;;;;;;;;;;5032948;28;20410;-52
2021/09/01 08:48:21;;;;;;;67.72;17.15;;;;;;;;;;5031522;28;20394;-52
2021/09/01 08:50:47;;;;;;;74.72;21.90;;;;;;;;;;5032983;28;20034;-52
2021/09/01 08:53:13;;;;;;;71.22;19.27;;;;;;;;;;5032770;28;20025;-52
2021/09/01 08:55:39;;;;;;;67.30;22.92;;;;;;;;;;5031755;28;20104;-52
2021/09/01 08:58:05;;;;;;;119.53;21.92;;;;;;;;;;5032668;28;20108;-52
2021/09/01 09:00:31;;;;;;;71.53;19.05;;;;;;;;;;5032716;28;20481;-52
2021/09/01 09:02:58;;;;;;;69.93;20.88;;;;;;;;;;5031239;28;20056;-52
2021/09/01 09:05:31;;;;;;;50.58;14.75;;;;;;;;;;5032041;28;20434;-52
2021/09/01 09:07:57;;;;;;;28.02;8.13;;;;;;;;;;5032684;28;20039;-52
2021/09/01 09:10:37;;;;;;;39.22;13.63;;;;;;;;;;5032824;28;20072;-52
2021/09/01 09:13:05;;;;;;;27.10;9.63;;;;;;;;;;5032688;28;20079;-52
2021/09/01 09:15:31;;;;;;;51.20;17.80;;;;;;;;;;5032024;28;20040;-52
2021/09/01 09:17:57;;;;;;;60.85;20.65;;;;;;;;;;5031497;28;20121;-52
2021/09/01 09:20:30;;;;;;;52.22;16.35;;;;;;;;;;5032326;28;20060;-53
2021/09/01 09:22:57;;;;;;;48.22;15.82;;;;;;;;;;5032587;28;20082;-52
2021/09/01 09:25:30;;;;;;;76.57;17.77;;;;;;;;;;5031998;28;20127;-51
2021/09/01 09:28:06;;;;;;;54.13;16.08;;;;;;;;;;5032256;28;20383;-52
2021/09/01 09:30:37;;;;;;;46.67;13.70;;;;;;;;;;5032608;28;20112;-52
2021/09/01 09:33:17;;;;;;;59.10;19.63;;;;;;;;;;5031088;28;20021;-52
2021/09/01 09:35:52;;;;;;;49.97;16.17;;;;;;;;;;5032285;28;20052;-52
2021/09/01 09:38:39;;;;;;;45.17;13.10;;;;;;;;;;5032719;28;20351;-52
2021/09/01 09:41:06;;;;;;;45.75;12.13;;;;;;;;;;5032415;28;20036;-52
2021/09/01 09:43:32;;;;;;;49.17;9.07;;;;;;;;;;5031088;28;20038;-52
2021/09/01 09:46:01;;;;;;;11.20;6.15;;;;;;;;;;5032432;28;20028;-52
2021/09/01 09:48:31;;;;;;;7.30;4.78;;;;;;;;;;5033936;28;20044;-52
2021/09/01 09:50:57;;;;;;;8.32;4.40;;;;;;;;;;5035883;28;20455;-52
2021/09/01 09:53:38;;;;;;;7.72;4.60;;;;;;;;;;5035812;28;20057;-52
2021/09/01 09:56:13;;;;;;;9.40;3.85;;;;;;;;;;5035617;28;20452;-52
2021/09/01 09:58:42;;;;;;;26.08;4.60;;;;;;;;;;5035765;28;20029;-52
2021/09/01 10:01:09;;;;;;;12.63;4.33;;;;;;;;;;5033956;28;20025;-52
2021/09/01 10:03:35;;;;;;;7.10;3.85;;;;;;;;;;5034035;28;20336;-52
2021/09/01 10:06:03;;;;;;;6.85;4.13;;;;;;;;;;5035935;28;20100;-52
2021/09/01 10:08:30;;;;;;;5.93;3.60;;;;;;;;;;5036074;28;20371;-52
2021/09/01 10:10:57;;;;;;;9.27;3.90;;;;;;;;;;5035222;28;20032;-52
2021/09/01 10:13:25;;;;;;;8.27;4.45;;;;;;;;;;5034730;28;20435;-52
2021/09/01 10:15:52;;;;;;;10.32;3.47;;;;;;;;;;5035669;28;20115;-52
2021/09/01 10:18:18;;;;;;;5.95;3.65;;;;;;;;;;5034493;28;20435;-52
2021/09/01 10:20:45;;;;;;;6.68;4.18;;;;;;;;;;5035146;28;20113;-52
2021/09/01 10:23:11;;;;;;;7.43;4.35;;;;;;;;;;5035889;28;20324;-52
2021/09/01 10:25:40;;;;;;;6.88;4.28;;;;;;;;;;5034135;28;20025;-52
2021/09/01 10:28:25;;;;;;;4.63;3.58;;;;;;;;;;5035215;28;20415;-52
2021/09/01 10:31:03;;;;;;;7.32;3.75;;;;;;;;;;5035550;28;20028;-52
2021/09/01 10:33:36;;;;;;;9.65;3.80;;;;;;;;;;5033219;28;20068;-52
2021/09/01 10:36:21;;;;;;;7.75;4.20;;;;;;;;;;5034825;28;20076;-52
2021/09/01 10:38:47;;;;;;;7.00;4.10;;;;;;;;;;5035299;28;20356;-52
2021/09/01 10:41:12;;;;;;;6.38;3.33;;;;;;;;;;5035281;28;20483;-52
2021/09/01 10:43:38;;;;;;;6.40;3.90;;;;;;;;;;5034016;28;20099;-52
2021/09/01 10:46:05;;;;;;;8.70;3.70;;;;;;;;;;5035374;28;20020;-52
2021/09/01 10:48:51;;;;;;;6.65;3.35;;;;;;;;;;5033608;28;20026;-52
2021/09/01 10:51:27;;;;;;;7.63;3.88;;;;;;;;;;5029465;28;20030;-52
2021/09/01 10:53:53;;;;;;;6.45;3.97;;;;;;;;;;5014765;28;20018;-52
2021/09/01 10:56:19;;;;;;;5.78;4.05;;;;;;;;;;5014836;28;20356;-52
2021/09/01 10:58:46;;;;;;;6.20;3.33;;;;;;;;;;5013828;28;20026;-52
2021/09/01 11:01:16;;;;;;;7.75;3.65;;;;;;;;;;5015008;28;20038;-52
2021/09/01 11:03:53;;;;;;;7.32;3.90;;;;;;;;;;5021443;28;20037;-52
2021/09/01 11:06:33;;;;;;;8.23;3.80;;;;;;;;;;5034658;28;20029;-52
2021/09/01 11:09:22;;;;;;;5.90;3.00;;;;;;;;;;5034544;28;20033;-52
2021/09/01 11:11:55;;;;;;;9.00;4.00;;;;;;;;;;5034880;28;20083;-52
2021/09/01 11:14:39;;;;;;;7.57;3.70;;;;;;;;;;5033793;28;20033;-52
2021/09/01 11:17:10;;;;;;;14.48;3.75;;;;;;;;;;5034874;28;20025;-52
2021/09/01 11:19:36;;;;;;;7.95;3.63;;;;;;;;;;5032917;28;20033;-52
2021/09/01 11:22:07;;;;;;;5.95;3.33;;;;;;;;;;5034513;28;20109;-52
2021/09/01 11:24:32;;;;;;;;;;;;;;;;;;5034131;28;20069;-52
2021/09/01 11:26:58;;;;;;;5.53;3.03;;;;;;;;;;5034234;28;19959;-52
2021/09/01 11:29:34;;;;;;;6.32;3.45;;;;;;;;;;5034284;28;20344;-52
2021/09/01 11:32:00;;;;;;;7.63;3.58;;;;;;;;;;5033995;28;20071;-52
2021/09/01 11:34:26;;;;;;;46.63;5.13;;;;;;;;;;5031744;28;20462;-52
2021/09/01 11:36:52;;;;;;;5.20;3.25;;;;;;;;;;5034247;28;20025;-53
2021/09/01 11:39:18;;;;;;;6.10;3.42;;;;;;;;;;5034064;28;20112;-52
2021/09/01 11:41:45;;;;;;;6.05;3.45;;;;;;;;;;5034359;28;20163;-52
2021/09/01 11:44:11;;;;;;;7.30;3.67;;;;;;;;;;5033316;28;20047;-52
2021/09/01 11:46:38;;;;;;;5.03;2.65;;;;;;;;;;5033831;28;20249;-52
2021/09/01 11:49:06;;;;;;;6.35;3.17;;;;;;;;;;5032500;28;20514;-52
2021/09/01 11:51:32;;;;;;;7.80;2.95;;;;;;;;;;5033788;28;20025;-52
2021/09/01 11:53:59;;;;;;;10.13;3.45;;;;;;;;;;5033177;28;20033;-52
2021/09/01 11:56:25;;;;;;;4.97;3.17;;;;;;;;;;5034026;28;20089;-52
2021/09/01 11:58:58;;;;;;;4.63;3.17;;;;;;;;;;5033986;28;20104;-52
2021/09/01 12:01:25;;;;;;;8.80;3.38;;;;;;;;;;5033228;28;20479;-52
2021/09/01 12:03:51;;;;;;;4.07;2.60;;;;;;;;;;5031739;28;20522;-51
2021/09/01 12:06:17;;;;;;;6.47;2.85;;;;;;;;;;5033243;28;20013;-52
2021/09/01 12:08:51;;;;;;;5.85;3.60;;;;;;;;;;5033637;28;20029;-52
2021/09/01 12:11:17;;;;;;;5.82;3.00;;;;;;;;;;5033345;28;20439;-51
2021/09/01 12:13:43;;;;;;;7.43;3.70;;;;;;;;;;5032720;28;20032;-52
2021/09/01 12:16:09;;;;;;;7.53;3.08;;;;;;;;;;5033427;28;20036;-52
2021/09/01 12:18:49;;;;;;;8.02;3.03;;;;;;;;;;5032448;28;20028;-52
2021/09/01 12:21:15;;;;;;;4.20;2.95;;;;;;;;;;5025210;28;20100;-52
2021/09/01 12:23:41;;;;;;;5.63;3.05;;;;;;;;;;5032690;28;20388;-52
2021/09/01 12:26:07;;;;;;;6.80;3.22;;;;;;;;;;5033591;28;20028;-52
2021/09/01 12:28:46;;;;;;;5.90;2.72;;;;;;;;;;5032945;28;20033;-52
2021/09/01 12:31:22;;;;;;;7.07;3.17;;;;;;;;;;5033210;28;20029;-51
2021/09/01 12:33:48;;;;;;;3.85;2.60;;;;;;;;;;5031425;28;20027;-52
2021/09/01 12:36:28;;;;;;;12.13;2.60;;;;;;;;;;5033296;28;20033;-52
2021/09/01 12:38:55;;;;;;;5.27;3.10;;;;;;;;;;5032540;28;20463;-51
2021/09/01 12:41:25;;;;;;;8.55;3.35;;;;;;;;;;5032951;28;20013;-52
2021/09/01 12:44:00;;;;;;;4.38;2.97;;;;;;;;;;5032320;28;20036;-52
2021/09/01 12:46:26;;;;;;;5.00;2.83;;;;;;;;;;5032872;28;20447;-52
2021/09/01 12:48:52;;;;;;;6.90;2.75;;;;;;;;;;5032114;28;20029;-52
2021/09/01 12:51:18;;;;;;;7.00;2.83;;;;;;;;;;5032660;28;20021;-51
2021/09/01 12:53:44;;;;;;;4.97;3.00;;;;;;;;;;5019314;28;20436;-52
2021/09/01 12:56:10;;;;;;;8.35;3.00;;;;;;;;;;5029059;28;20060;-52
2021/09/01 12:58:36;;;;;;;6.07;2.70;;;;;;;;;;5033091;28;20022;-52
2021/09/01 13:01:02;;;;;;;4.18;2.80;;;;;;;;;;5029049;28;20045;-52
2021/09/01 13:03:28;;;;;;;4.68;2.70;;;;;;;;;;5011822;28;20045;-52
2021/09/01 13:05:54;;;;;;;13.25;3.50;;;;;;;;;;5028655;28;20034;-52
2021/09/01 13:08:20;;;;;;;4.28;2.45;;;;;;;;;;5032386;28;20423;-52
2021/09/01 13:10:46;;;;;;;5.50;2.58;;;;;;;;;;5032566;28;20101;-52
2021/09/01 13:13:12;;;;;;;5.03;3.15;;;;;;;;;;5033042;28;20049;-52
2021/09/01 13:15:38;;;;;;;5.63;3.05;;;;;;;;;;5032133;28;20109;-52
2021/09/01 13:18:04;;;;;;;6.35;3.28;;;;;;;;;;5032659;28;20407;-52
2021/09/01 13:20:31;;;;;;;5.97;3.33;;;;;;;;;;5031577;28;20032;-52
2021/09/01 13:22:57;;;;;;;5.93;3.03;;;;;;;;;;5033926;28;20026;-52
2021/09/01 13:25:24;;;;;;;5.18;3.28;;;;;;;;;;5035899;28;20036;-52
2021/09/01 13:27:50;;;;;;;5.70;3.40;;;;;;;;;;5036192;28;20071;-52
2021/09/01 13:30:17;;;;;;;6.00;2.88;;;;;;;;;;5036747;28;20034;-52
2021/09/01 13:32:43;;;;;;;5.30;2.53;;;;;;;;;;5036166;28;20440;-52
2021/09/01 13:35:11;;;;;;;5.55;3.08;;;;;;;;;;5034322;28;20076;-52
2021/09/01 13:37:38;;;;;;;5.47;3.15;;;;;;;;;;5037187;28;20029;-52
2021/09/01 13:40:05;;;;;;;4.00;3.00;;;;;;;;;;5046657;28;20032;-53
2021/09/01 13:42:31;;;;;;;3.53;2.45;;;;;;;;;;5053684;28;20112;-52
2021/09/01 13:44:57;;;;;;;5.43;3.10;;;;;;;;;;5052082;28;20132;-53
2021/09/01 13:47:22;;;;;;;6.18;3.28;;;;;;;;;;5031166;28;20105;-51
2021/09/01 13:49:48;;;;;;;8.15;3.00;;;;;;;;;;5026795;28;20474;-51
2021/09/01 13:52:14;;;;;;;5.30;3.10;;;;;;;;;;5031680;28;20021;-52
2021/09/01 13:54:40;;;;;;;5.72;3.53;;;;;;;;;;5024637;28;20040;-52
2021/09/01 13:57:06;;;;;;;6.13;3.47;;;;;;;;;;5025561;28;20079;-52
2021/09/01 13:59:32;;;;;;;6.60;3.10;;;;;;;;;;5024513;28;20104;-52
2021/09/01 14:01:58;;;;;;;4.57;3.20;;;;;;;;;;5024456;28;20017;-52
2021/09/01 14:04:25;;;;;;;5.30;3.03;;;;;;;;;;5024853;28;20025;-51
2021/09/01 14:06:51;;;;;;;8.98;3.40;;;;;;;;;;5027089;28;20033;-52
2021/09/01 14:09:17;;;;;;;4.70;2.95;;;;;;;;;;5024772;28;20487;-52
2021/09/01 14:11:44;;;;;;;5.93;3.38;;;;;;;;;;5029814;28;20026;-52
2021/09/01 14:14:11;;;;;;;5.28;3.05;;;;;;;;;;5028646;28;20025;-52
2021/09/01 14:16:37;;;;;;;5.07;2.83;;;;;;;;;;5035391;28;20083;-52
2021/09/01 14:19:03;;;;;;;5.57;3.25;;;;;;;;;;5035314;28;20048;-52
2021/09/01 14:21:29;;;;;;;6.35;2.78;;;;;;;;;;5034042;28;20036;-52
2021/09/01 14:23:56;;;;;;;6.40;3.10;;;;;;;;;;5034880;28;20037;-52
2021/09/01 14:26:22;;;;;;;3.45;2.70;;;;;;;;;;5035470;28;20388;-52
2021/09/01 14:28:48;;;;;;;6.28;3.00;;;;;;;;;;5034441;28;20029;-52
2021/09/01 14:31:14;;;;;;;7.93;3.08;;;;;;;;;;5035502;28;20083;-52
2021/09/01 14:33:40;;;;;;;6.13;3.05;;;;;;;;;;5033912;28;20359;-52
2021/09/01 14:36:07;;;;;;;5.68;2.88;;;;;;;;;;5033936;28;20040;-52